Barnard Township, Maine
Current Conditions -  °F | °C
As of 6:53 PM on Tuesday 25 Nov 2014 (Local Time) from KMLT Reporting Station
Clear Clear  
Wind Chill: 40°   Ceiling: Unl
Heat Index: 45°   Visibility: 10mi
Dew Point: 29°   Wind: 9mph
Humidity: 53%   Direction: 290°WNW
Pressure: 29.89"   Gusts: NA
Location:  45.4731°N, 69.1129°W
Report Text: KMLT 252353Z AUTO 29008KT 10SM CLR 07/M02 A2989 RMK AO2 SLP128 T00721017 10122 20072 53030
Loading
Personal Weather Stations






























Interactive Weather Map New forecast layout! Learn more

10-Day Weather Forecast

Advertisements
Track Severe Weather on mobile